sensor_id;sensor_type;location;lat;lon;timestamp;temperature;humidity
70051;SHT30;57391;51.306;22.680;2023-09-30T00:02:26;15.61;74.89
70051;SHT30;57391;51.306;22.680;2023-09-30T00:04:53;15.61;74.93
70051;SHT30;57391;51.306;22.680;2023-09-30T00:07:20;15.59;74.99
70051;SHT30;57391;51.306;22.680;2023-09-30T00:09:47;15.59;75.01
70051;SHT30;57391;51.306;22.680;2023-09-30T00:12:15;15.57;74.96
70051;SHT30;57391;51.306;22.680;2023-09-30T00:14:42;15.56;75.03
70051;SHT30;57391;51.306;22.680;2023-09-30T00:17:09;15.55;75.10
70051;SHT30;57391;51.306;22.680;2023-09-30T00:19:36;15.54;75.10
70051;SHT30;57391;51.306;22.680;2023-09-30T00:22:03;15.54;75.13
70051;SHT30;57391;51.306;22.680;2023-09-30T00:24:30;15.53;75.19
70051;SHT30;57391;51.306;22.680;2023-09-30T00:26:57;15.53;75.20
70051;SHT30;57391;51.306;22.680;2023-09-30T00:29:24;15.52;75.24
70051;SHT30;57391;51.306;22.680;2023-09-30T00:31:51;15.51;75.34
70051;SHT30;57391;51.306;22.680;2023-09-30T00:34:17;15.49;75.36
70051;SHT30;57391;51.306;22.680;2023-09-30T00:36:44;15.46;75.40
70051;SHT30;57391;51.306;22.680;2023-09-30T00:39:12;15.45;75.36
70051;SHT30;57391;51.306;22.680;2023-09-30T00:41:39;15.45;75.46
70051;SHT30;57391;51.306;22.680;2023-09-30T00:44:07;15.44;75.57
70051;SHT30;57391;51.306;22.680;2023-09-30T00:46:36;15.43;75.63
70051;SHT30;57391;51.306;22.680;2023-09-30T00:49:07;15.41;75.67
70051;SHT30;57391;51.306;22.680;2023-09-30T00:51:36;15.40;75.70
70051;SHT30;57391;51.306;22.680;2023-09-30T00:54:04;15.38;75.76
70051;SHT30;57391;51.306;22.680;2023-09-30T00:56:32;15.36;75.80
70051;SHT30;57391;51.306;22.680;2023-09-30T00:59:00;15.35;75.71
70051;SHT30;57391;51.306;22.680;2023-09-30T01:01:27;15.32;75.68
70051;SHT30;57391;51.306;22.680;2023-09-30T01:03:54;15.32;75.73
70051;SHT30;57391;51.306;22.680;2023-09-30T01:06:21;15.31;75.70
70051;SHT30;57391;51.306;22.680;2023-09-30T01:08:48;15.30;75.70
70051;SHT30;57391;51.306;22.680;2023-09-30T01:11:16;15.29;75.75
70051;SHT30;57391;51.306;22.680;2023-09-30T01:13:43;15.29;75.70
70051;SHT30;57391;51.306;22.680;2023-09-30T01:16:11;15.27;75.70
70051;SHT30;57391;51.306;22.680;2023-09-30T01:18:39;15.27;75.72
70051;SHT30;57391;51.306;22.680;2023-09-30T01:21:09;15.28;75.61
70051;SHT30;57391;51.306;22.680;2023-09-30T01:23:37;15.27;75.53
70051;SHT30;57391;51.306;22.680;2023-09-30T01:26:12;15.27;75.53
70051;SHT30;57391;51.306;22.680;2023-09-30T01:28:39;15.27;75.45
70051;SHT30;57391;51.306;22.680;2023-09-30T01:31:07;15.27;75.42
70051;SHT30;57391;51.306;22.680;2023-09-30T01:33:35;15.23;75.42
70051;SHT30;57391;51.306;22.680;2023-09-30T01:36:03;15.23;75.47
70051;SHT30;57391;51.306;22.680;2023-09-30T01:38:30;15.22;75.49
70051;SHT30;57391;51.306;22.680;2023-09-30T01:40:57;15.20;75.51
70051;SHT30;57391;51.306;22.680;2023-09-30T01:43:24;15.18;75.50
70051;SHT30;57391;51.306;22.680;2023-09-30T01:45:52;15.17;75.50
70051;SHT30;57391;51.306;22.680;2023-09-30T01:48:19;15.14;75.52
70051;SHT30;57391;51.306;22.680;2023-09-30T01:50:46;15.11;75.55
70051;SHT30;57391;51.306;22.680;2023-09-30T01:53:14;15.09;75.58
70051;SHT30;57391;51.306;22.680;2023-09-30T01:55:41;15.06;75.68
70051;SHT30;57391;51.306;22.680;2023-09-30T01:58:09;15.04;75.65
70051;SHT30;57391;51.306;22.680;2023-09-30T02:00:38;15.01;75.69
70051;SHT30;57391;51.306;22.680;2023-09-30T02:03:05;15.02;75.66
70051;SHT30;57391;51.306;22.680;2023-09-30T02:05:32;15.00;75.62
70051;SHT30;57391;51.306;22.680;2023-09-30T02:07:59;14.98;75.66
70051;SHT30;57391;51.306;22.680;2023-09-30T02:10:26;14.97;75.72
70051;SHT30;57391;51.306;22.680;2023-09-30T02:12:53;14.95;75.71
70051;SHT30;57391;51.306;22.680;2023-09-30T02:15:19;14.93;75.70
70051;SHT30;57391;51.306;22.680;2023-09-30T02:17:47;14.91;75.73
70051;SHT30;57391;51.306;22.680;2023-09-30T02:20:15;14.89;75.79
70051;SHT30;57391;51.306;22.680;2023-09-30T02:22:45;14.87;75.84
70051;SHT30;57391;51.306;22.680;2023-09-30T02:25:12;14.86;75.87
70051;SHT30;57391;51.306;22.680;2023-09-30T02:27:40;14.85;75.89
70051;SHT30;57391;51.306;22.680;2023-09-30T02:30:08;14.83;75.88
70051;SHT30;57391;51.306;22.680;2023-09-30T02:32:38;14.82;75.92
70051;SHT30;57391;51.306;22.680;2023-09-30T02:35:07;14.82;75.90
70051;SHT30;57391;51.306;22.680;2023-09-30T02:37:37;14.81;75.93
70051;SHT30;57391;51.306;22.680;2023-09-30T02:40:05;14.81;75.94
70051;SHT30;57391;51.306;22.680;2023-09-30T02:42:37;14.81;75.95
70051;SHT30;57391;51.306;22.680;2023-09-30T02:45:05;14.80;76.00
70051;SHT30;57391;51.306;22.680;2023-09-30T02:47:34;14.81;75.96
70051;SHT30;57391;51.306;22.680;2023-09-30T02:50:02;14.82;75.95
70051;SHT30;57391;51.306;22.680;2023-09-30T02:52:32;14.83;76.03
70051;SHT30;57391;51.306;22.680;2023-09-30T02:54:59;14.82;76.06
70051;SHT30;57391;51.306;22.680;2023-09-30T02:57:26;14.84;76.00
70051;SHT30;57391;51.306;22.680;2023-09-30T02:59:56;14.85;75.92
70051;SHT30;57391;51.306;22.680;2023-09-30T03:02:22;14.85;75.84
70051;SHT30;57391;51.306;22.680;2023-09-30T03:04:50;14.86;75.91
70051;SHT30;57391;51.306;22.680;2023-09-30T03:07:18;14.86;75.90
70051;SHT30;57391;51.306;22.680;2023-09-30T03:09:46;14.86;75.90
70051;SHT30;57391;51.306;22.680;2023-09-30T03:12:13;14.87;75.93
70051;SHT30;57391;51.306;22.680;2023-09-30T03:14:40;14.89;75.91
70051;SHT30;57391;51.306;22.680;2023-09-30T03:17:07;14.89;75.92
70051;SHT30;57391;51.306;22.680;2023-09-30T03:19:38;14.89;75.91
70051;SHT30;57391;51.306;22.680;2023-09-30T03:22:05;14.88;75.98
70051;SHT30;57391;51.306;22.680;2023-09-30T03:24:38;14.87;75.93
70051;SHT30;57391;51.306;22.680;2023-09-30T03:27:06;14.84;76.03
70051;SHT30;57391;51.306;22.680;2023-09-30T03:29:35;14.83;76.10
70051;SHT30;57391;51.306;22.680;2023-09-30T03:32:04;14.82;76.10
70051;SHT30;57391;51.306;22.680;2023-09-30T03:34:31;14.82;76.12
70051;SHT30;57391;51.306;22.680;2023-09-30T03:36:58;14.81;76.19
70051;SHT30;57391;51.306;22.680;2023-09-30T03:39:27;14.81;76.17
70051;SHT30;57391;51.306;22.680;2023-09-30T03:41:57;14.80;76.20
70051;SHT30;57391;51.306;22.680;2023-09-30T03:44:24;14.78;76.21
70051;SHT30;57391;51.306;22.680;2023-09-30T03:46:51;14.78;76.29
70051;SHT30;57391;51.306;22.680;2023-09-30T03:49:19;14.77;76.29
70051;SHT30;57391;51.306;22.680;2023-09-30T03:51:48;14.76;76.34
70051;SHT30;57391;51.306;22.680;2023-09-30T03:54:17;14.75;76.40
70051;SHT30;57391;51.306;22.680;2023-09-30T03:56:47;14.74;76.42
70051;SHT30;57391;51.306;22.680;2023-09-30T03:59:14;14.73;76.50
70051;SHT30;57391;51.306;22.680;2023-09-30T04:01:41;14.71;76.50
70051;SHT30;57391;51.306;22.680;2023-09-30T04:04:09;14.70;76.50
70051;SHT30;57391;51.306;22.680;2023-09-30T04:06:36;14.68;76.56
70051;SHT30;57391;51.306;22.680;2023-09-30T04:09:05;14.67;76.60
70051;SHT30;57391;51.306;22.680;2023-09-30T04:11:38;14.67;76.59
70051;SHT30;57391;51.306;22.680;2023-09-30T04:14:06;14.67;76.62
70051;SHT30;57391;51.306;22.680;2023-09-30T04:16:34;14.66;76.60
70051;SHT30;57391;51.306;22.680;2023-09-30T04:19:03;14.65;76.65
70051;SHT30;57391;51.306;22.680;2023-09-30T04:21:31;14.64;76.71
70051;SHT30;57391;51.306;22.680;2023-09-30T04:24:00;14.63;76.70
70051;SHT30;57391;51.306;22.680;2023-09-30T04:26:27;14.62;76.66
70051;SHT30;57391;51.306;22.680;2023-09-30T04:28:54;14.62;76.65
70051;SHT30;57391;51.306;22.680;2023-09-30T04:31:21;14.62;76.73
70051;SHT30;57391;51.306;22.680;2023-09-30T04:33:49;14.60;76.85
70051;SHT30;57391;51.306;22.680;2023-09-30T04:36:17;14.58;77.01
70051;SHT30;57391;51.306;22.680;2023-09-30T04:38:44;14.57;77.12
70051;SHT30;57391;51.306;22.680;2023-09-30T04:41:11;14.57;77.19
70051;SHT30;57391;51.306;22.680;2023-09-30T04:43:39;14.57;77.25
70051;SHT30;57391;51.306;22.680;2023-09-30T04:46:06;14.58;77.28
70051;SHT30;57391;51.306;22.680;2023-09-30T04:48:39;14.60;77.26
70051;SHT30;57391;51.306;22.680;2023-09-30T04:51:07;14.62;77.28
70051;SHT30;57391;51.306;22.680;2023-09-30T04:53:34;14.65;77.21
70051;SHT30;57391;51.306;22.680;2023-09-30T04:56:02;14.69;77.20
70051;SHT30;57391;51.306;22.680;2023-09-30T04:58:30;14.75;77.14
70051;SHT30;57391;51.306;22.680;2023-09-30T05:00:57;14.94;76.99
70051;SHT30;57391;51.306;22.680;2023-09-30T05:03:24;15.23;76.48
70051;SHT30;57391;51.306;22.680;2023-09-30T05:05:52;15.67;75.88
70051;SHT30;57391;51.306;22.680;2023-09-30T05:08:24;16.09;74.79
70051;SHT30;57391;51.306;22.680;2023-09-30T05:10:52;16.44;74.08
70051;SHT30;57391;51.306;22.680;2023-09-30T05:13:22;16.88;73.03
70051;SHT30;57391;51.306;22.680;2023-09-30T05:15:49;17.03;72.28
70051;SHT30;57391;51.306;22.680;2023-09-30T05:18:17;17.26;71.60
70051;SHT30;57391;51.306;22.680;2023-09-30T05:20:44;17.20;71.36
70051;SHT30;57391;51.306;22.680;2023-09-30T05:23:11;17.07;71.35
70051;SHT30;57391;51.306;22.680;2023-09-30T05:25:41;16.92;71.50
70051;SHT30;57391;51.306;22.680;2023-09-30T05:28:09;16.80;71.76
70051;SHT30;57391;51.306;22.680;2023-09-30T05:30:37;16.70;71.99
70051;SHT30;57391;51.306;22.680;2023-09-30T05:33:05;16.64;72.17
70051;SHT30;57391;51.306;22.680;2023-09-30T05:35:33;16.59;72.25
70051;SHT30;57391;51.306;22.680;2023-09-30T05:38:00;16.56;72.36
70051;SHT30;57391;51.306;22.680;2023-09-30T05:40:27;16.55;72.47
70051;SHT30;57391;51.306;22.680;2023-09-30T05:42:57;16.55;72.63
70051;SHT30;57391;51.306;22.680;2023-09-30T05:45:25;16.57;72.71
70051;SHT30;57391;51.306;22.680;2023-09-30T05:48:03;16.58;72.75
70051;SHT30;57391;51.306;22.680;2023-09-30T05:50:32;16.56;72.87
70051;SHT30;57391;51.306;22.680;2023-09-30T05:53:02;16.57;72.96
70051;SHT30;57391;51.306;22.680;2023-09-30T05:55:31;16.62;72.93
70051;SHT30;57391;51.306;22.680;2023-09-30T05:57:58;16.71;72.93
70051;SHT30;57391;51.306;22.680;2023-09-30T06:00:27;16.89;72.73
70051;SHT30;57391;51.306;22.680;2023-09-30T06:02:57;17.03;72.41
70051;SHT30;57391;51.306;22.680;2023-09-30T06:05:24;17.13;72.22
70051;SHT30;57391;51.306;22.680;2023-09-30T06:07:56;17.21;72.10
70051;SHT30;57391;51.306;22.680;2023-09-30T06:10:25;17.22;71.95
70051;SHT30;57391;51.306;22.680;2023-09-30T06:12:52;17.21;72.07
70051;SHT30;57391;51.306;22.680;2023-09-30T06:15:24;17.20;72.19
70051;SHT30;57391;51.306;22.680;2023-09-30T06:17:55;17.21;72.49
70051;SHT30;57391;51.306;22.680;2023-09-30T06:20:24;17.23;72.63
70051;SHT30;57391;51.306;22.680;2023-09-30T06:22:52;17.27;73.01
70051;SHT30;57391;51.306;22.680;2023-09-30T06:25:22;17.31;72.77
70051;SHT30;57391;51.306;22.680;2023-09-30T06:27:52;17.33;72.76
70051;SHT30;57391;51.306;22.680;2023-09-30T06:30:21;17.37;72.71
70051;SHT30;57391;51.306;22.680;2023-09-30T06:32:51;17.42;72.75
70051;SHT30;57391;51.306;22.680;2023-09-30T06:35:19;17.45;72.51
70051;SHT30;57391;51.306;22.680;2023-09-30T06:37:46;17.49;72.48
70051;SHT30;57391;51.306;22.680;2023-09-30T06:40:13;17.51;72.21
70051;SHT30;57391;51.306;22.680;2023-09-30T06:42:40;17.54;72.05
70051;SHT30;57391;51.306;22.680;2023-09-30T06:45:08;17.56;71.93
70051;SHT30;57391;51.306;22.680;2023-09-30T06:47:36;17.59;72.00
70051;SHT30;57391;51.306;22.680;2023-09-30T06:50:07;17.62;72.08
70051;SHT30;57391;51.306;22.680;2023-09-30T06:52:39;17.66;72.08
70051;SHT30;57391;51.306;22.680;2023-09-30T06:55:08;17.70;72.10
70051;SHT30;57391;51.306;22.680;2023-09-30T06:57:36;17.74;72.10
70051;SHT30;57391;51.306;22.680;2023-09-30T07:00:08;17.82;71.87
70051;SHT30;57391;51.306;22.680;2023-09-30T07:02:38;17.89;71.55
70051;SHT30;57391;51.306;22.680;2023-09-30T07:05:13;17.97;71.36
70051;SHT30;57391;51.306;22.680;2023-09-30T07:07:41;18.03;71.21
70051;SHT30;57391;51.306;22.680;2023-09-30T07:10:11;18.10;71.47
70051;SHT30;57391;51.306;22.680;2023-09-30T07:12:39;18.20;71.13
70051;SHT30;57391;51.306;22.680;2023-09-30T07:15:06;18.28;70.56
70051;SHT30;57391;51.306;22.680;2023-09-30T07:17:35;18.34;70.21
70051;SHT30;57391;51.306;22.680;2023-09-30T07:20:03;18.40;69.77
70051;SHT30;57391;51.306;22.680;2023-09-30T07:22:32;18.44;69.70
70051;SHT30;57391;51.306;22.680;2023-09-30T07:25:00;18.48;69.58
70051;SHT30;57391;51.306;22.680;2023-09-30T07:27:27;18.51;69.28
70051;SHT30;57391;51.306;22.680;2023-09-30T07:29:53;18.56;69.46
70051;SHT30;57391;51.306;22.680;2023-09-30T07:32:20;18.62;69.28
70051;SHT30;57391;51.306;22.680;2023-09-30T07:34:49;18.69;69.19
70051;SHT30;57391;51.306;22.680;2023-09-30T07:37:17;18.77;69.26
70051;SHT30;57391;51.306;22.680;2023-09-30T07:39:46;18.88;69.22
70051;SHT30;57391;51.306;22.680;2023-09-30T07:42:13;19.00;69.57
70051;SHT30;57391;51.306;22.680;2023-09-30T07:44:40;19.13;69.69
70051;SHT30;57391;51.306;22.680;2023-09-30T07:47:07;19.25;69.39
70051;SHT30;57391;51.306;22.680;2023-09-30T07:49:38;19.37;68.76
70051;SHT30;57391;51.306;22.680;2023-09-30T07:52:05;19.48;68.67
70051;SHT30;57391;51.306;22.680;2023-09-30T07:54:31;19.56;67.50
70051;SHT30;57391;51.306;22.680;2023-09-30T07:56:59;19.63;66.46
70051;SHT30;57391;51.306;22.680;2023-09-30T07:59:26;19.68;66.14
70051;SHT30;57391;51.306;22.680;2023-09-30T08:01:53;19.74;65.73
70051;SHT30;57391;51.306;22.680;2023-09-30T08:04:21;19.78;65.83
70051;SHT30;57391;51.306;22.680;2023-09-30T08:06:48;19.83;65.52
70051;SHT30;57391;51.306;22.680;2023-09-30T08:09:17;19.88;66.10
70051;SHT30;57391;51.306;22.680;2023-09-30T08:11:44;19.93;65.83
70051;SHT30;57391;51.306;22.680;2023-09-30T08:14:11;19.99;65.33
70051;SHT30;57391;51.306;22.680;2023-09-30T08:16:38;20.03;65.21
70051;SHT30;57391;51.306;22.680;2023-09-30T08:19:05;20.08;65.32
70051;SHT30;57391;51.306;22.680;2023-09-30T08:21:33;20.12;65.08
70051;SHT30;57391;51.306;22.680;2023-09-30T08:24:02;20.17;65.44
70051;SHT30;57391;51.306;22.680;2023-09-30T08:26:29;20.21;65.11
70051;SHT30;57391;51.306;22.680;2023-09-30T08:28:56;20.24;64.79
70051;SHT30;57391;51.306;22.680;2023-09-30T08:31:23;20.26;64.92
70051;SHT30;57391;51.306;22.680;2023-09-30T08:33:50;20.28;64.19
70051;SHT30;57391;51.306;22.680;2023-09-30T08:36:17;20.28;64.06
70051;SHT30;57391;51.306;22.680;2023-09-30T08:38:45;20.30;63.96
70051;SHT30;57391;51.306;22.680;2023-09-30T08:41:16;20.33;64.00
70051;SHT30;57391;51.306;22.680;2023-09-30T08:44:02;20.33;63.85
70051;SHT30;57391;51.306;22.680;2023-09-30T08:46:31;20.32;63.99
70051;SHT30;57391;51.306;22.680;2023-09-30T08:49:04;20.32;63.79
70051;SHT30;57391;51.306;22.680;2023-09-30T08:51:34;20.31;63.64
70051;SHT30;57391;51.306;22.680;2023-09-30T08:54:02;20.28;63.45
70051;SHT30;57391;51.306;22.680;2023-09-30T08:56:30;20.24;63.41
70051;SHT30;57391;51.306;22.680;2023-09-30T08:59:02;20.21;63.26
70051;SHT30;57391;51.306;22.680;2023-09-30T09:01:30;20.18;63.40
70051;SHT30;57391;51.306;22.680;2023-09-30T09:03:58;20.16;63.47
70051;SHT30;57391;51.306;22.680;2023-09-30T09:06:25;20.13;63.49
70051;SHT30;57391;51.306;22.680;2023-09-30T09:08:52;20.13;63.57
70051;SHT30;57391;51.306;22.680;2023-09-30T09:11:19;20.13;63.87
70051;SHT30;57391;51.306;22.680;2023-09-30T09:13:53;20.15;63.90
70051;SHT30;57391;51.306;22.680;2023-09-30T09:16:24;20.21;64.02
70051;SHT30;57391;51.306;22.680;2023-09-30T09:18:51;20.25;63.99
70051;SHT30;57391;51.306;22.680;2023-09-30T09:21:19;20.31;64.08
70051;SHT30;57391;51.306;22.680;2023-09-30T09:23:50;20.35;63.98
70051;SHT30;57391;51.306;22.680;2023-09-30T09:26:30;20.39;64.11
70051;SHT30;57391;51.306;22.680;2023-09-30T09:29:01;20.43;64.06
70051;SHT30;57391;51.306;22.680;2023-09-30T09:31:34;20.46;64.23
70051;SHT30;57391;51.306;22.680;2023-09-30T09:34:03;20.44;64.23
70051;SHT30;57391;51.306;22.680;2023-09-30T09:36:39;20.42;64.49
70051;SHT30;57391;51.306;22.680;2023-09-30T09:39:12;20.39;64.79
70051;SHT30;57391;51.306;22.680;2023-09-30T09:41:49;20.37;65.24
70051;SHT30;57391;51.306;22.680;2023-09-30T09:44:21;20.34;65.21
70051;SHT30;57391;51.306;22.680;2023-09-30T09:46:49;20.34;65.76
70051;SHT30;57391;51.306;22.680;2023-09-30T09:49:17;20.36;66.22
70051;SHT30;57391;51.306;22.680;2023-09-30T09:51:45;20.37;66.57
70051;SHT30;57391;51.306;22.680;2023-09-30T09:54:14;20.37;66.87
70051;SHT30;57391;51.306;22.680;2023-09-30T09:56:46;20.39;67.02
70051;SHT30;57391;51.306;22.680;2023-09-30T09:59:13;20.38;67.19
70051;SHT30;57391;51.306;22.680;2023-09-30T10:01:41;20.38;67.28
70051;SHT30;57391;51.306;22.680;2023-09-30T10:04:10;20.40;67.30
70051;SHT30;57391;51.306;22.680;2023-09-30T10:06:37;20.40;67.40
70051;SHT30;57391;51.306;22.680;2023-09-30T10:09:08;20.40;67.69
70051;SHT30;57391;51.306;22.680;2023-09-30T10:11:38;20.40;67.39
70051;SHT30;57391;51.306;22.680;2023-09-30T10:14:09;20.36;67.47
70051;SHT30;57391;51.306;22.680;2023-09-30T10:16:56;20.36;67.62
70051;SHT30;57391;51.306;22.680;2023-09-30T10:19:23;20.33;67.64
70051;SHT30;57391;51.306;22.680;2023-09-30T10:24:55;20.27;67.84
70051;SHT30;57391;51.306;22.680;2023-09-30T10:35:17;20.43;68.56
70051;SHT30;57391;51.306;22.680;2023-09-30T10:37:44;20.48;68.24
70051;SHT30;57391;51.306;22.680;2023-09-30T10:42:55;20.53;68.10
70051;SHT30;57391;51.306;22.680;2023-09-30T10:45:42;20.57;67.91
70051;SHT30;57391;51.306;22.680;2023-09-30T10:51:15;20.64;68.10
70051;SHT30;57391;51.306;22.680;2023-09-30T10:53:53;20.64;67.97
70051;SHT30;57391;51.306;22.680;2023-09-30T10:56:33;20.66;67.91
70051;SHT30;57391;51.306;22.680;2023-09-30T10:59:00;20.66;68.00
70051;SHT30;57391;51.306;22.680;2023-09-30T11:01:32;20.68;67.78
70051;SHT30;57391;51.306;22.680;2023-09-30T11:04:01;20.67;68.23
70051;SHT30;57391;51.306;22.680;2023-09-30T11:06:31;20.68;68.12
70051;SHT30;57391;51.306;22.680;2023-09-30T11:08:59;20.69;67.73
70051;SHT30;57391;51.306;22.680;2023-09-30T11:17:02;20.61;68.04
70051;SHT30;57391;51.306;22.680;2023-09-30T11:19:50;20.59;68.09
70051;SHT30;57391;51.306;22.680;2023-09-30T11:22:18;20.57;68.00
70051;SHT30;57391;51.306;22.680;2023-09-30T11:24:46;20.55;68.57
70051;SHT30;57391;51.306;22.680;2023-09-30T11:27:22;20.55;68.53
70051;SHT30;57391;51.306;22.680;2023-09-30T11:29:53;20.54;68.88
70051;SHT30;57391;51.306;22.680;2023-09-30T11:32:27;20.54;69.71
70051;SHT30;57391;51.306;22.680;2023-09-30T11:34:55;20.51;70.04
70051;SHT30;57391;51.306;22.680;2023-09-30T11:37:23;20.50;70.27
70051;SHT30;57391;51.306;22.680;2023-09-30T11:39:49;20.48;70.46
70051;SHT30;57391;51.306;22.680;2023-09-30T11:42:17;20.44;70.68
70051;SHT30;57391;51.306;22.680;2023-09-30T11:44:46;20.40;71.10
70051;SHT30;57391;51.306;22.680;2023-09-30T11:47:14;20.38;71.49
70051;SHT30;57391;51.306;22.680;2023-09-30T11:49:45;20.37;71.00
70051;SHT30;57391;51.306;22.680;2023-09-30T11:52:25;20.37;70.91
70051;SHT30;57391;51.306;22.680;2023-09-30T11:54:54;20.36;70.86
70051;SHT30;57391;51.306;22.680;2023-09-30T11:57:22;20.39;71.16
70051;SHT30;57391;51.306;22.680;2023-09-30T11:59:49;20.41;71.15
70051;SHT30;57391;51.306;22.680;2023-09-30T12:02:17;20.44;71.02
70051;SHT30;57391;51.306;22.680;2023-09-30T12:04:45;20.47;70.78
70051;SHT30;57391;51.306;22.680;2023-09-30T12:07:15;20.50;70.75
70051;SHT30;57391;51.306;22.680;2023-09-30T12:09:42;20.54;71.22
70051;SHT30;57391;51.306;22.680;2023-09-30T12:12:09;20.58;70.95
70051;SHT30;57391;51.306;22.680;2023-09-30T12:14:37;20.63;70.14
70051;SHT30;57391;51.306;22.680;2023-09-30T12:17:04;20.71;70.78
70051;SHT30;57391;51.306;22.680;2023-09-30T12:19:31;20.75;70.83
70051;SHT30;57391;51.306;22.680;2023-09-30T12:21:58;20.82;70.31
70051;SHT30;57391;51.306;22.680;2023-09-30T12:24:25;20.90;70.18
70051;SHT30;57391;51.306;22.680;2023-09-30T12:26:53;20.96;70.34
70051;SHT30;57391;51.306;22.680;2023-09-30T12:29:21;21.00;70.04
70051;SHT30;57391;51.306;22.680;2023-09-30T12:31:50;20.99;70.30
70051;SHT30;57391;51.306;22.680;2023-09-30T12:34:18;20.99;70.02
70051;SHT30;57391;51.306;22.680;2023-09-30T12:36:45;20.96;70.27
70051;SHT30;57391;51.306;22.680;2023-09-30T12:39:13;20.90;70.23
70051;SHT30;57391;51.306;22.680;2023-09-30T12:41:43;20.82;70.26
70051;SHT30;57391;51.306;22.680;2023-09-30T12:44:11;20.75;70.25
70051;SHT30;57391;51.306;22.680;2023-09-30T12:46:38;20.68;70.56
70051;SHT30;57391;51.306;22.680;2023-09-30T12:49:06;20.61;70.86
70051;SHT30;57391;51.306;22.680;2023-09-30T12:51:33;20.57;71.02
70051;SHT30;57391;51.306;22.680;2023-09-30T12:54:02;20.51;71.33
70051;SHT30;57391;51.306;22.680;2023-09-30T12:56:29;20.41;71.75
70051;SHT30;57391;51.306;22.680;2023-09-30T12:58:56;20.35;72.04
70051;SHT30;57391;51.306;22.680;2023-09-30T13:01:24;20.29;72.39
70051;SHT30;57391;51.306;22.680;2023-09-30T13:03:51;20.25;72.63
70051;SHT30;57391;51.306;22.680;2023-09-30T13:06:19;20.22;72.95
70051;SHT30;57391;51.306;22.680;2023-09-30T13:08:46;20.19;73.14
70051;SHT30;57391;51.306;22.680;2023-09-30T13:11:13;20.18;73.54
70051;SHT30;57391;51.306;22.680;2023-09-30T13:13:40;20.14;73.85
70051;SHT30;57391;51.306;22.680;2023-09-30T13:16:09;20.12;74.11
70051;SHT30;57391;51.306;22.680;2023-09-30T13:18:37;20.08;74.26
70051;SHT30;57391;51.306;22.680;2023-09-30T13:21:05;20.04;74.45
70051;SHT30;57391;51.306;22.680;2023-09-30T13:23:32;19.98;74.64
70051;SHT30;57391;51.306;22.680;2023-09-30T13:25:59;19.95;74.92
70051;SHT30;57391;51.306;22.680;2023-09-30T13:28:27;19.92;75.10
70051;SHT30;57391;51.306;22.680;2023-09-30T13:30:55;19.90;75.12
70051;SHT30;57391;51.306;22.680;2023-09-30T13:33:23;19.87;75.31
70051;SHT30;57391;51.306;22.680;2023-09-30T13:35:50;19.86;75.50
70051;SHT30;57391;51.306;22.680;2023-09-30T13:38:17;19.87;75.61
70051;SHT30;57391;51.306;22.680;2023-09-30T13:40:45;19.89;75.60
70051;SHT30;57391;51.306;22.680;2023-09-30T13:43:12;19.95;75.80
70051;SHT30;57391;51.306;22.680;2023-09-30T13:45:39;20.00;75.85
70051;SHT30;57391;51.306;22.680;2023-09-30T13:48:06;20.07;75.75
70051;SHT30;57391;51.306;22.680;2023-09-30T13:50:34;20.12;75.63
70051;SHT30;57391;51.306;22.680;2023-09-30T13:53:01;20.18;75.53
70051;SHT30;57391;51.306;22.680;2023-09-30T13:55:29;20.19;75.29
70051;SHT30;57391;51.306;22.680;2023-09-30T13:57:55;20.20;75.22
70051;SHT30;57391;51.306;22.680;2023-09-30T14:00:22;20.20;75.13
70051;SHT30;57391;51.306;22.680;2023-09-30T14:02:50;20.19;75.12
70051;SHT30;57391;51.306;22.680;2023-09-30T14:05:17;20.15;75.04
70051;SHT30;57391;51.306;22.680;2023-09-30T14:07:46;20.13;75.03
70051;SHT30;57391;51.306;22.680;2023-09-30T14:10:14;20.13;75.07
70051;SHT30;57391;51.306;22.680;2023-09-30T14:12:41;20.15;75.07
70051;SHT30;57391;51.306;22.680;2023-09-30T14:15:08;20.16;74.95
70051;SHT30;57391;51.306;22.680;2023-09-30T14:17:36;20.14;75.00
70051;SHT30;57391;51.306;22.680;2023-09-30T14:20:03;20.14;74.94
70051;SHT30;57391;51.306;22.680;2023-09-30T14:22:31;20.12;74.91
70051;SHT30;57391;51.306;22.680;2023-09-30T14:24:58;20.09;74.49
70051;SHT30;57391;51.306;22.680;2023-09-30T14:27:25;20.04;74.20
70051;SHT30;57391;51.306;22.680;2023-09-30T14:29:52;20.01;74.36
70051;SHT30;57391;51.306;22.680;2023-09-30T14:32:20;19.96;74.24
70051;SHT30;57391;51.306;22.680;2023-09-30T14:34:47;19.90;74.18
70051;SHT30;57391;51.306;22.680;2023-09-30T14:37:14;19.87;74.17
70051;SHT30;57391;51.306;22.680;2023-09-30T14:39:41;19.80;74.10
70051;SHT30;57391;51.306;22.680;2023-09-30T14:42:08;19.75;74.11
70051;SHT30;57391;51.306;22.680;2023-09-30T14:44:35;19.70;74.17
70051;SHT30;57391;51.306;22.680;2023-09-30T14:47:01;19.66;74.31
70051;SHT30;57391;51.306;22.680;2023-09-30T14:49:30;19.59;74.44
70051;SHT30;57391;51.306;22.680;2023-09-30T14:51:58;19.50;74.60
70051;SHT30;57391;51.306;22.680;2023-09-30T14:54:25;19.43;74.81
70051;SHT30;57391;51.306;22.680;2023-09-30T14:56:52;19.41;74.85
70051;SHT30;57391;51.306;22.680;2023-09-30T14:59:18;19.32;75.05
70051;SHT30;57391;51.306;22.680;2023-09-30T15:01:45;19.25;75.18
70051;SHT30;57391;51.306;22.680;2023-09-30T15:04:12;19.15;75.35
70051;SHT30;57391;51.306;22.680;2023-09-30T15:06:39;19.05;75.44
70051;SHT30;57391;51.306;22.680;2023-09-30T15:09:06;18.96;75.54
70051;SHT30;57391;51.306;22.680;2023-09-30T15:11:35;18.87;75.79
70051;SHT30;57391;51.306;22.680;2023-09-30T15:14:02;18.75;76.02
70051;SHT30;57391;51.306;22.680;2023-09-30T15:16:31;18.56;76.29
70051;SHT30;57391;51.306;22.680;2023-09-30T15:18:58;18.39;76.56
70051;SHT30;57391;51.306;22.680;2023-09-30T15:21:25;18.20;76.85
70051;SHT30;57391;51.306;22.680;2023-09-30T15:23:52;18.04;77.14
70051;SHT30;57391;51.306;22.680;2023-09-30T15:26:19;17.92;77.43
70051;SHT30;57391;51.306;22.680;2023-09-30T15:28:46;17.81;77.73
70051;SHT30;57391;51.306;22.680;2023-09-30T15:31:14;17.72;77.93
70051;SHT30;57391;51.306;22.680;2023-09-30T15:33:41;17.67;78.13
70051;SHT30;57391;51.306;22.680;2023-09-30T15:36:11;17.62;78.16
70051;SHT30;57391;51.306;22.680;2023-09-30T15:38:40;17.56;78.29
70051;SHT30;57391;51.306;22.680;2023-09-30T15:41:07;17.50;78.42
70051;SHT30;57391;51.306;22.680;2023-09-30T15:43:39;17.47;78.61
70051;SHT30;57391;51.306;22.680;2023-09-30T15:46:09;17.45;78.73